sensor_id;sensor_type;location;lat;lon;timestamp;P1;durP1;ratioP1;P2;durP2;ratioP2
2157;SDS011;41972;48.774;9.282;2023-05-15T00:01:12;20.00;;;18.40;;
2157;SDS011;41972;48.774;9.282;2023-05-15T00:03:38;19.10;;;17.53;;
2157;SDS011;41972;48.774;9.282;2023-05-15T00:06:03;22.20;;;20.30;;
2157;SDS011;41972;48.774;9.282;2023-05-15T00:08:29;18.23;;;16.53;;
2157;SDS011;41972;48.774;9.282;2023-05-15T00:10:55;20.13;;;18.43;;
2157;SDS011;41972;48.774;9.282;2023-05-15T00:13:21;17.33;;;15.77;;
2157;SDS011;41972;48.774;9.282;2023-05-15T00:15:46;20.77;;;19.07;;
2157;SDS011;41972;48.774;9.282;2023-05-15T00:18:12;21.00;;;19.47;;
2157;SDS011;41972;48.774;9.282;2023-05-15T00:20:37;18.67;;;17.07;;
2157;SDS011;41972;48.774;9.282;2023-05-15T00:23:03;18.70;;;17.13;;
2157;SDS011;41972;48.774;9.282;2023-05-15T00:25:29;17.07;;;15.63;;
2157;SDS011;41972;48.774;9.282;2023-05-15T00:27:54;17.43;;;15.73;;
2157;SDS011;41972;48.774;9.282;2023-05-15T00:30:20;19.00;;;17.60;;
2157;SDS011;41972;48.774;9.282;2023-05-15T00:32:45;20.47;;;18.97;;
2157;SDS011;41972;48.774;9.282;2023-05-15T00:35:11;18.90;;;17.50;;
2157;SDS011;41972;48.774;9.282;2023-05-15T00:37:36;18.13;;;16.67;;
2157;SDS011;41972;48.774;9.282;2023-05-15T00:40:02;19.47;;;17.63;;
2157;SDS011;41972;48.774;9.282;2023-05-15T00:42:28;17.60;;;16.20;;
2157;SDS011;41972;48.774;9.282;2023-05-15T00:44:55;18.37;;;16.70;;
2157;SDS011;41972;48.774;9.282;2023-05-15T00:47:23;20.33;;;18.70;;
2157;SDS011;41972;48.774;9.282;2023-05-15T00:49:50;18.67;;;17.40;;
2157;SDS011;41972;48.774;9.282;2023-05-15T00:52:16;24.30;;;22.70;;
2157;SDS011;41972;48.774;9.282;2023-05-15T00:54:43;20.13;;;18.73;;
2157;SDS011;41972;48.774;9.282;2023-05-15T00:57:08;17.60;;;16.13;;
2157;SDS011;41972;48.774;9.282;2023-05-15T00:59:35;19.57;;;18.20;;
2157;SDS011;41972;48.774;9.282;2023-05-15T01:02:01;24.50;;;22.90;;
2157;SDS011;41972;48.774;9.282;2023-05-15T01:04:27;27.53;;;25.67;;
2157;SDS011;41972;48.774;9.282;2023-05-15T01:06:53;27.07;;;25.47;;
2157;SDS011;41972;48.774;9.282;2023-05-15T01:09:19;20.20;;;18.87;;
2157;SDS011;41972;48.774;9.282;2023-05-15T01:11:47;17.80;;;16.57;;
2157;SDS011;41972;48.774;9.282;2023-05-15T01:14:15;18.00;;;16.83;;
2157;SDS011;41972;48.774;9.282;2023-05-15T01:16:40;21.03;;;19.33;;
2157;SDS011;41972;48.774;9.282;2023-05-15T01:19:06;17.27;;;15.77;;
2157;SDS011;41972;48.774;9.282;2023-05-15T01:24:16;17.73;;;16.23;;
2157;SDS011;41972;48.774;9.282;2023-05-15T01:27:20;18.43;;;17.13;;
2157;SDS011;41972;48.774;9.282;2023-05-15T01:30:03;16.10;;;14.70;;
2157;SDS011;41972;48.774;9.282;2023-05-15T01:35:33;15.30;;;14.00;;
2157;SDS011;41972;48.774;9.282;2023-05-15T01:41:01;18.63;;;17.00;;
2157;SDS011;41972;48.774;9.282;2023-05-15T01:43:45;18.70;;;17.00;;
2157;SDS011;41972;48.774;9.282;2023-05-15T01:46:16;19.07;;;17.43;;
2157;SDS011;41972;48.774;9.282;2023-05-15T01:48:45;20.90;;;19.17;;
2157;SDS011;41972;48.774;9.282;2023-05-15T01:51:13;21.77;;;19.97;;
2157;SDS011;41972;48.774;9.282;2023-05-15T01:53:40;20.73;;;18.83;;
2157;SDS011;41972;48.774;9.282;2023-05-15T01:56:07;19.03;;;17.43;;
2157;SDS011;41972;48.774;9.282;2023-05-15T01:58:36;22.43;;;20.73;;
2157;SDS011;41972;48.774;9.282;2023-05-15T02:01:04;18.30;;;16.80;;
2157;SDS011;41972;48.774;9.282;2023-05-15T02:03:30;18.87;;;17.33;;
2157;SDS011;41972;48.774;9.282;2023-05-15T02:05:58;19.07;;;17.50;;
2157;SDS011;41972;48.774;9.282;2023-05-15T02:08:25;18.77;;;17.30;;
2157;SDS011;41972;48.774;9.282;2023-05-15T02:10:53;17.87;;;16.33;;
2157;SDS011;41972;48.774;9.282;2023-05-15T02:13:20;17.07;;;15.60;;
2157;SDS011;41972;48.774;9.282;2023-05-15T02:15:48;16.17;;;14.67;;
2157;SDS011;41972;48.774;9.282;2023-05-15T02:18:14;14.73;;;13.53;;
2157;SDS011;41972;48.774;9.282;2023-05-15T02:20:39;16.50;;;15.00;;
2157;SDS011;41972;48.774;9.282;2023-05-15T02:23:05;15.30;;;13.93;;
2157;SDS011;41972;48.774;9.282;2023-05-15T02:25:33;22.47;;;21.03;;
2157;SDS011;41972;48.774;9.282;2023-05-15T02:28:11;20.07;;;18.30;;
2157;SDS011;41972;48.774;9.282;2023-05-15T02:31:00;17.33;;;16.00;;
2157;SDS011;41972;48.774;9.282;2023-05-15T02:33:34;17.73;;;16.27;;
2157;SDS011;41972;48.774;9.282;2023-05-15T02:36:10;17.27;;;15.70;;
2157;SDS011;41972;48.774;9.282;2023-05-15T02:38:46;16.37;;;14.80;;
2157;SDS011;41972;48.774;9.282;2023-05-15T02:41:14;18.30;;;16.67;;
2157;SDS011;41972;48.774;9.282;2023-05-15T02:43:42;17.30;;;16.10;;
2157;SDS011;41972;48.774;9.282;2023-05-15T02:46:09;19.00;;;17.40;;
2157;SDS011;41972;48.774;9.282;2023-05-15T02:48:39;17.80;;;16.40;;
2157;SDS011;41972;48.774;9.282;2023-05-15T02:51:06;18.10;;;16.40;;
2157;SDS011;41972;48.774;9.282;2023-05-15T02:53:32;17.17;;;15.80;;
2157;SDS011;41972;48.774;9.282;2023-05-15T02:55:58;17.50;;;16.00;;
2157;SDS011;41972;48.774;9.282;2023-05-15T02:58:24;20.20;;;18.77;;
2157;SDS011;41972;48.774;9.282;2023-05-15T03:00:50;22.07;;;20.47;;
2157;SDS011;41972;48.774;9.282;2023-05-15T03:03:15;17.17;;;15.87;;
2157;SDS011;41972;48.774;9.282;2023-05-15T03:05:41;18.73;;;17.40;;
2157;SDS011;41972;48.774;9.282;2023-05-15T03:08:06;16.27;;;15.07;;
2157;SDS011;41972;48.774;9.282;2023-05-15T03:10:32;20.43;;;18.63;;
2157;SDS011;41972;48.774;9.282;2023-05-15T03:12:58;17.23;;;15.80;;
2157;SDS011;41972;48.774;9.282;2023-05-15T03:15:23;17.80;;;16.03;;
2157;SDS011;41972;48.774;9.282;2023-05-15T03:17:49;18.63;;;17.03;;
2157;SDS011;41972;48.774;9.282;2023-05-15T03:20:14;22.93;;;21.33;;
2157;SDS011;41972;48.774;9.282;2023-05-15T03:22:40;16.93;;;15.63;;
2157;SDS011;41972;48.774;9.282;2023-05-15T03:25:08;20.73;;;19.13;;
2157;SDS011;41972;48.774;9.282;2023-05-15T03:27:34;18.00;;;16.50;;
2157;SDS011;41972;48.774;9.282;2023-05-15T03:30:00;18.47;;;16.97;;
2157;SDS011;41972;48.774;9.282;2023-05-15T03:32:26;21.57;;;19.90;;
2157;SDS011;41972;48.774;9.282;2023-05-15T03:34:51;18.90;;;17.30;;
2157;SDS011;41972;48.774;9.282;2023-05-15T03:37:17;18.60;;;16.93;;
2157;SDS011;41972;48.774;9.282;2023-05-15T03:39:42;20.03;;;18.20;;
2157;SDS011;41972;48.774;9.282;2023-05-15T03:42:08;19.20;;;17.60;;
2157;SDS011;41972;48.774;9.282;2023-05-15T03:44:33;18.37;;;16.97;;
2157;SDS011;41972;48.774;9.282;2023-05-15T03:46:59;17.37;;;15.97;;
2157;SDS011;41972;48.774;9.282;2023-05-15T03:49:24;14.80;;;13.60;;
2157;SDS011;41972;48.774;9.282;2023-05-15T03:51:50;17.43;;;15.93;;
2157;SDS011;41972;48.774;9.282;2023-05-15T03:54:16;15.77;;;14.37;;
2157;SDS011;41972;48.774;9.282;2023-05-15T03:56:41;15.50;;;14.20;;
2157;SDS011;41972;48.774;9.282;2023-05-15T03:59:07;16.30;;;15.10;;
2157;SDS011;41972;48.774;9.282;2023-05-15T04:01:32;19.23;;;17.73;;
2157;SDS011;41972;48.774;9.282;2023-05-15T04:03:58;14.43;;;13.33;;
2157;SDS011;41972;48.774;9.282;2023-05-15T04:06:23;14.00;;;12.70;;
2157;SDS011;41972;48.774;9.282;2023-05-15T04:08:49;16.93;;;15.83;;
2157;SDS011;41972;48.774;9.282;2023-05-15T04:11:15;17.87;;;16.67;;
2157;SDS011;41972;48.774;9.282;2023-05-15T04:13:41;14.00;;;12.80;;
2157;SDS011;41972;48.774;9.282;2023-05-15T04:16:06;14.57;;;13.57;;
2157;SDS011;41972;48.774;9.282;2023-05-15T04:18:32;13.97;;;12.97;;
2157;SDS011;41972;48.774;9.282;2023-05-15T04:20:58;11.37;;;10.33;;
2157;SDS011;41972;48.774;9.282;2023-05-15T04:23:24;10.97;;;10.07;;
2157;SDS011;41972;48.774;9.282;2023-05-15T04:25:51;12.03;;;11.13;;
2157;SDS011;41972;48.774;9.282;2023-05-15T04:28:17;13.93;;;13.13;;
2157;SDS011;41972;48.774;9.282;2023-05-15T04:30:45;10.73;;;9.83;;
2157;SDS011;41972;48.774;9.282;2023-05-15T04:33:11;11.50;;;10.70;;
2157;SDS011;41972;48.774;9.282;2023-05-15T04:35:36;11.10;;;10.33;;
2157;SDS011;41972;48.774;9.282;2023-05-15T04:38:04;8.97;;;8.27;;
2157;SDS011;41972;48.774;9.282;2023-05-15T04:40:30;9.40;;;8.60;;
2157;SDS011;41972;48.774;9.282;2023-05-15T04:42:55;8.53;;;7.93;;
2157;SDS011;41972;48.774;9.282;2023-05-15T04:45:21;8.60;;;8.00;;
2157;SDS011;41972;48.774;9.282;2023-05-15T04:47:48;10.33;;;9.37;;
2157;SDS011;41972;48.774;9.282;2023-05-15T04:50:14;9.73;;;9.13;;
2157;SDS011;41972;48.774;9.282;2023-05-15T04:52:39;8.10;;;7.50;;
2157;SDS011;41972;48.774;9.282;2023-05-15T04:55:07;14.60;;;13.80;;
2157;SDS011;41972;48.774;9.282;2023-05-15T04:57:33;9.27;;;8.67;;
2157;SDS011;41972;48.774;9.282;2023-05-15T04:59:59;9.87;;;9.27;;
2157;SDS011;41972;48.774;9.282;2023-05-15T05:02:24;13.40;;;12.67;;
2157;SDS011;41972;48.774;9.282;2023-05-15T05:04:50;8.20;;;7.60;;
2157;SDS011;41972;48.774;9.282;2023-05-15T05:07:16;9.23;;;8.53;;
2157;SDS011;41972;48.774;9.282;2023-05-15T05:09:41;11.10;;;10.50;;
2157;SDS011;41972;48.774;9.282;2023-05-15T05:12:07;8.00;;;7.40;;
2157;SDS011;41972;48.774;9.282;2023-05-15T05:14:33;8.93;;;8.30;;
2157;SDS011;41972;48.774;9.282;2023-05-15T05:16:59;10.10;;;9.30;;
2157;SDS011;41972;48.774;9.282;2023-05-15T05:19:26;9.33;;;8.40;;
2157;SDS011;41972;48.774;9.282;2023-05-15T05:21:52;9.63;;;8.73;;
2157;SDS011;41972;48.774;9.282;2023-05-15T05:24:18;10.50;;;9.67;;
2157;SDS011;41972;48.774;9.282;2023-05-15T05:26:44;13.50;;;12.67;;
2157;SDS011;41972;48.774;9.282;2023-05-15T05:29:09;11.57;;;10.70;;
2157;SDS011;41972;48.774;9.282;2023-05-15T05:31:36;10.93;;;10.20;;
2157;SDS011;41972;48.774;9.282;2023-05-15T05:34:02;10.30;;;9.50;;
2157;SDS011;41972;48.774;9.282;2023-05-15T05:36:27;11.27;;;10.37;;
2157;SDS011;41972;48.774;9.282;2023-05-15T05:38:53;11.53;;;10.73;;
2157;SDS011;41972;48.774;9.282;2023-05-15T05:41:18;12.73;;;11.90;;
2157;SDS011;41972;48.774;9.282;2023-05-15T05:43:45;12.77;;;11.60;;
2157;SDS011;41972;48.774;9.282;2023-05-15T05:46:11;12.10;;;11.20;;
2157;SDS011;41972;48.774;9.282;2023-05-15T05:48:36;11.37;;;10.60;;
2157;SDS011;41972;48.774;9.282;2023-05-15T05:51:02;14.60;;;10.33;;
2157;SDS011;41972;48.774;9.282;2023-05-15T05:53:28;11.20;;;10.40;;
2157;SDS011;41972;48.774;9.282;2023-05-15T05:55:54;13.97;;;12.60;;
2157;SDS011;41972;48.774;9.282;2023-05-15T05:58:20;13.30;;;12.20;;
2157;SDS011;41972;48.774;9.282;2023-05-15T06:00:46;13.30;;;12.30;;
2157;SDS011;41972;48.774;9.282;2023-05-15T06:03:11;12.00;;;11.10;;
2157;SDS011;41972;48.774;9.282;2023-05-15T06:05:37;11.33;;;10.40;;
2157;SDS011;41972;48.774;9.282;2023-05-15T06:08:02;12.73;;;11.83;;
2157;SDS011;41972;48.774;9.282;2023-05-15T06:10:28;11.80;;;10.93;;
2157;SDS011;41972;48.774;9.282;2023-05-15T06:12:54;14.10;;;13.07;;
2157;SDS011;41972;48.774;9.282;2023-05-15T06:15:20;12.87;;;11.90;;
2157;SDS011;41972;48.774;9.282;2023-05-15T06:17:45;14.70;;;13.47;;
2157;SDS011;41972;48.774;9.282;2023-05-15T06:20:11;15.47;;;14.43;;
2157;SDS011;41972;48.774;9.282;2023-05-15T06:22:37;16.43;;;15.33;;
2157;SDS011;41972;48.774;9.282;2023-05-15T06:25:03;15.03;;;14.03;;
2157;SDS011;41972;48.774;9.282;2023-05-15T06:27:30;13.77;;;12.77;;
2157;SDS011;41972;48.774;9.282;2023-05-15T06:29:56;13.17;;;12.00;;
2157;SDS011;41972;48.774;9.282;2023-05-15T06:32:21;11.57;;;10.60;;
2157;SDS011;41972;48.774;9.282;2023-05-15T06:34:47;11.47;;;10.40;;
2157;SDS011;41972;48.774;9.282;2023-05-15T06:37:13;10.83;;;9.93;;
2157;SDS011;41972;48.774;9.282;2023-05-15T06:39:38;10.00;;;9.20;;
2157;SDS011;41972;48.774;9.282;2023-05-15T06:42:04;9.90;;;8.90;;
2157;SDS011;41972;48.774;9.282;2023-05-15T06:44:30;10.00;;;9.40;;
2157;SDS011;41972;48.774;9.282;2023-05-15T06:46:56;11.80;;;11.00;;
2157;SDS011;41972;48.774;9.282;2023-05-15T06:49:22;9.20;;;8.50;;
2157;SDS011;41972;48.774;9.282;2023-05-15T06:51:48;10.50;;;9.70;;
2157;SDS011;41972;48.774;9.282;2023-05-15T06:54:14;9.63;;;8.93;;
2157;SDS011;41972;48.774;9.282;2023-05-15T06:56:40;12.90;;;12.10;;
2157;SDS011;41972;48.774;9.282;2023-05-15T06:59:05;10.60;;;9.57;;
2157;SDS011;41972;48.774;9.282;2023-05-15T07:01:31;9.43;;;8.60;;
2157;SDS011;41972;48.774;9.282;2023-05-15T07:03:56;11.43;;;10.60;;
2157;SDS011;41972;48.774;9.282;2023-05-15T07:06:22;8.87;;;8.27;;
2157;SDS011;41972;48.774;9.282;2023-05-15T07:08:49;9.47;;;8.70;;
2157;SDS011;41972;48.774;9.282;2023-05-15T07:11:15;12.27;;;11.57;;
2157;SDS011;41972;48.774;9.282;2023-05-15T07:13:40;9.93;;;9.20;;
2157;SDS011;41972;48.774;9.282;2023-05-15T07:16:06;9.87;;;9.17;;
2157;SDS011;41972;48.774;9.282;2023-05-15T07:18:32;11.03;;;10.33;;
2157;SDS011;41972;48.774;9.282;2023-05-15T07:20:57;9.37;;;8.73;;
2157;SDS011;41972;48.774;9.282;2023-05-15T07:23:23;12.30;;;11.60;;
2157;SDS011;41972;48.774;9.282;2023-05-15T07:25:51;13.53;;;12.73;;
2157;SDS011;41972;48.774;9.282;2023-05-15T07:28:18;10.50;;;9.80;;
2157;SDS011;41972;48.774;9.282;2023-05-15T07:30:43;9.97;;;9.37;;
2157;SDS011;41972;48.774;9.282;2023-05-15T07:33:09;11.40;;;10.77;;
2157;SDS011;41972;48.774;9.282;2023-05-15T07:35:35;11.60;;;10.90;;
2157;SDS011;41972;48.774;9.282;2023-05-15T07:38:00;12.90;;;12.20;;
2157;SDS011;41972;48.774;9.282;2023-05-15T07:40:26;9.53;;;8.93;;
2157;SDS011;41972;48.774;9.282;2023-05-15T07:42:51;15.83;;;14.97;;
2157;SDS011;41972;48.774;9.282;2023-05-15T07:45:17;12.30;;;11.17;;
2157;SDS011;41972;48.774;9.282;2023-05-15T07:47:45;11.70;;;11.00;;
2157;SDS011;41972;48.774;9.282;2023-05-15T07:50:12;17.53;;;16.43;;
2157;SDS011;41972;48.774;9.282;2023-05-15T07:52:38;17.00;;;16.10;;
2157;SDS011;41972;48.774;9.282;2023-05-15T07:55:04;10.90;;;10.30;;
2157;SDS011;41972;48.774;9.282;2023-05-15T07:57:30;17.27;;;16.47;;
2157;SDS011;41972;48.774;9.282;2023-05-15T07:59:56;14.60;;;14.00;;
2157;SDS011;41972;48.774;9.282;2023-05-15T08:02:23;10.03;;;9.43;;
2157;SDS011;41972;48.774;9.282;2023-05-15T08:04:48;12.93;;;12.33;;
2157;SDS011;41972;48.774;9.282;2023-05-15T08:07:14;8.10;;;7.50;;
2157;SDS011;41972;48.774;9.282;2023-05-15T08:09:40;8.87;;;8.23;;
2157;SDS011;41972;48.774;9.282;2023-05-15T08:12:15;8.70;;;8.10;;
2157;SDS011;41972;48.774;9.282;2023-05-15T08:14:51;9.33;;;7.73;;
2157;SDS011;41972;48.774;9.282;2023-05-15T08:17:18;8.50;;;8.00;;
2157;SDS011;41972;48.774;9.282;2023-05-15T08:19:44;8.17;;;7.60;;
2157;SDS011;41972;48.774;9.282;2023-05-15T08:22:10;8.67;;;8.00;;
2157;SDS011;41972;48.774;9.282;2023-05-15T08:24:36;7.60;;;7.10;;
2157;SDS011;41972;48.774;9.282;2023-05-15T08:27:03;8.87;;;8.23;;
2157;SDS011;41972;48.774;9.282;2023-05-15T08:29:30;7.83;;;7.23;;
2157;SDS011;41972;48.774;9.282;2023-05-15T08:31:56;10.83;;;10.23;;
2157;SDS011;41972;48.774;9.282;2023-05-15T08:34:22;17.27;;;16.47;;
2157;SDS011;41972;48.774;9.282;2023-05-15T08:36:47;10.27;;;9.77;;
2157;SDS011;41972;48.774;9.282;2023-05-15T08:39:13;11.00;;;10.30;;
2157;SDS011;41972;48.774;9.282;2023-05-15T08:41:46;10.43;;;9.83;;
2157;SDS011;41972;48.774;9.282;2023-05-15T08:44:19;10.63;;;10.13;;
2157;SDS011;41972;48.774;9.282;2023-05-15T08:46:46;8.63;;;8.23;;
2157;SDS011;41972;48.774;9.282;2023-05-15T08:49:26;8.77;;;8.37;;
2157;SDS011;41972;48.774;9.282;2023-05-15T08:52:14;9.73;;;9.17;;
2157;SDS011;41972;48.774;9.282;2023-05-15T08:54:40;8.53;;;7.90;;
2157;SDS011;41972;48.774;9.282;2023-05-15T08:57:06;9.50;;;8.87;;
2157;SDS011;41972;48.774;9.282;2023-05-15T08:59:33;9.57;;;9.07;;
2157;SDS011;41972;48.774;9.282;2023-05-15T09:01:59;7.90;;;7.40;;
2157;SDS011;41972;48.774;9.282;2023-05-15T09:04:24;7.73;;;7.03;;
2157;SDS011;41972;48.774;9.282;2023-05-15T09:06:50;7.43;;;6.93;;
2157;SDS011;41972;48.774;9.282;2023-05-15T09:09:17;5.93;;;5.30;;
2157;SDS011;41972;48.774;9.282;2023-05-15T09:11:43;7.00;;;6.50;;
2157;SDS011;41972;48.774;9.282;2023-05-15T09:14:11;8.27;;;7.67;;
2157;SDS011;41972;48.774;9.282;2023-05-15T09:16:37;6.40;;;6.10;;
2157;SDS011;41972;48.774;9.282;2023-05-15T09:19:06;6.90;;;6.30;;
2157;SDS011;41972;48.774;9.282;2023-05-15T09:21:33;8.67;;;7.87;;
2157;SDS011;41972;48.774;9.282;2023-05-15T09:26:59;8.57;;;7.73;;
2157;SDS011;41972;48.774;9.282;2023-05-15T09:29:29;7.63;;;7.13;;
2157;SDS011;41972;48.774;9.282;2023-05-15T09:32:00;7.00;;;6.50;;
2157;SDS011;41972;48.774;9.282;2023-05-15T09:34:34;8.10;;;7.70;;
2157;SDS011;41972;48.774;9.282;2023-05-15T09:37:02;8.53;;;7.93;;
2157;SDS011;41972;48.774;9.282;2023-05-15T09:39:29;8.10;;;7.60;;
2157;SDS011;41972;48.774;9.282;2023-05-15T09:42:05;8.10;;;7.60;;
2157;SDS011;41972;48.774;9.282;2023-05-15T09:44:32;8.10;;;7.60;;
2157;SDS011;41972;48.774;9.282;2023-05-15T09:46:58;11.83;;;11.13;;
2157;SDS011;41972;48.774;9.282;2023-05-15T09:49:26;8.60;;;8.00;;
2157;SDS011;41972;48.774;9.282;2023-05-15T09:51:52;8.00;;;7.40;;
2157;SDS011;41972;48.774;9.282;2023-05-15T09:54:19;8.00;;;7.30;;
2157;SDS011;41972;48.774;9.282;2023-05-15T09:56:48;7.70;;;7.20;;
2157;SDS011;41972;48.774;9.282;2023-05-15T09:59:14;7.27;;;6.67;;
2157;SDS011;41972;48.774;9.282;2023-05-15T10:01:42;8.40;;;7.90;;
2157;SDS011;41972;48.774;9.282;2023-05-15T10:04:09;7.07;;;6.40;;
2157;SDS011;41972;48.774;9.282;2023-05-15T10:06:37;11.30;;;10.70;;
2157;SDS011;41972;48.774;9.282;2023-05-15T10:09:06;12.97;;;12.27;;
2157;SDS011;41972;48.774;9.282;2023-05-15T10:11:33;7.30;;;6.70;;
2157;SDS011;41972;48.774;9.282;2023-05-15T10:14:00;8.83;;;8.03;;
2157;SDS011;41972;48.774;9.282;2023-05-15T10:16:27;11.17;;;10.47;;
2157;SDS011;41972;48.774;9.282;2023-05-15T10:18:56;7.53;;;7.03;;
2157;SDS011;41972;48.774;9.282;2023-05-15T10:21:22;9.33;;;8.73;;
2157;SDS011;41972;48.774;9.282;2023-05-15T10:23:50;10.73;;;9.83;;
2157;SDS011;41972;48.774;9.282;2023-05-15T10:26:28;9.00;;;8.50;;
2157;SDS011;41972;48.774;9.282;2023-05-15T10:29:10;8.13;;;7.53;;
2157;SDS011;41972;48.774;9.282;2023-05-15T10:31:39;8.90;;;8.33;;
2157;SDS011;41972;48.774;9.282;2023-05-15T10:34:05;7.37;;;6.90;;
2157;SDS011;41972;48.774;9.282;2023-05-15T10:36:33;8.17;;;7.63;;
2157;SDS011;41972;48.774;9.282;2023-05-15T10:39:00;6.33;;;5.93;;
2157;SDS011;41972;48.774;9.282;2023-05-15T10:41:30;8.00;;;7.30;;
2157;SDS011;41972;48.774;9.282;2023-05-15T10:43:59;7.70;;;7.30;;
2157;SDS011;41972;48.774;9.282;2023-05-15T10:46:26;6.20;;;5.80;;
2157;SDS011;41972;48.774;9.282;2023-05-15T10:48:53;6.47;;;6.00;;
2157;SDS011;41972;48.774;9.282;2023-05-15T10:51:25;8.60;;;8.10;;
2157;SDS011;41972;48.774;9.282;2023-05-15T10:53:56;7.73;;;7.20;;
2157;SDS011;41972;48.774;9.282;2023-05-15T10:56:30;6.13;;;5.73;;
2157;SDS011;41972;48.774;9.282;2023-05-15T10:59:05;7.10;;;6.70;;
2157;SDS011;41972;48.774;9.282;2023-05-15T11:01:33;6.97;;;6.47;;
2157;SDS011;41972;48.774;9.282;2023-05-15T11:04:03;6.43;;;6.07;;
2157;SDS011;41972;48.774;9.282;2023-05-15T11:06:34;5.90;;;5.50;;
2157;SDS011;41972;48.774;9.282;2023-05-15T11:10:08;6.83;;;6.43;;
2157;SDS011;41972;48.774;9.282;2023-05-15T11:11:59;10.90;;;7.07;;
2157;SDS011;41972;48.774;9.282;2023-05-15T11:14:27;9.10;;;8.50;;
2157;SDS011;41972;48.774;9.282;2023-05-15T11:17:00;6.70;;;6.17;;
2157;SDS011;41972;48.774;9.282;2023-05-15T11:19:37;9.97;;;9.47;;
2157;SDS011;41972;48.774;9.282;2023-05-15T11:22:24;7.10;;;6.50;;
2157;SDS011;41972;48.774;9.282;2023-05-15T11:27:24;6.50;;;6.10;;
2157;SDS011;41972;48.774;9.282;2023-05-15T11:37:50;9.63;;;9.03;;
2157;SDS011;41972;48.774;9.282;2023-05-15T11:40:27;8.70;;;8.30;;
2157;SDS011;41972;48.774;9.282;2023-05-15T11:42:57;8.77;;;8.30;;
2157;SDS011;41972;48.774;9.282;2023-05-15T11:45:23;13.03;;;12.37;;
2157;SDS011;41972;48.774;9.282;2023-05-15T11:47:48;9.07;;;8.47;;
2157;SDS011;41972;48.774;9.282;2023-05-15T11:50:15;9.37;;;8.97;;
2157;SDS011;41972;48.774;9.282;2023-05-15T11:52:41;16.67;;;15.90;;
2157;SDS011;41972;48.774;9.282;2023-05-15T11:55:07;11.40;;;10.60;;
2157;SDS011;41972;48.774;9.282;2023-05-15T11:57:33;10.33;;;9.83;;
2157;SDS011;41972;48.774;9.282;2023-05-15T11:59:59;14.60;;;13.90;;
2157;SDS011;41972;48.774;9.282;2023-05-15T12:02:26;14.50;;;13.90;;
2157;SDS011;41972;48.774;9.282;2023-05-15T12:04:51;20.97;;;20.13;;
2157;SDS011;41972;48.774;9.282;2023-05-15T12:07:17;7.10;;;6.70;;
2157;SDS011;41972;48.774;9.282;2023-05-15T12:09:42;12.27;;;11.67;;
2157;SDS011;41972;48.774;9.282;2023-05-15T12:12:13;14.07;;;13.37;;
2157;SDS011;41972;48.774;9.282;2023-05-15T12:14:39;9.93;;;9.43;;
2157;SDS011;41972;48.774;9.282;2023-05-15T12:17:05;13.20;;;12.50;;
2157;SDS011;41972;48.774;9.282;2023-05-15T12:19:32;8.37;;;7.97;;
2157;SDS011;41972;48.774;9.282;2023-05-15T12:21:58;11.27;;;10.67;;
2157;SDS011;41972;48.774;9.282;2023-05-15T12:24:27;7.13;;;6.70;;
2157;SDS011;41972;48.774;9.282;2023-05-15T12:26:52;8.00;;;7.60;;
2157;SDS011;41972;48.774;9.282;2023-05-15T12:29:18;8.83;;;8.43;;
2157;SDS011;41972;48.774;9.282;2023-05-15T12:31:44;6.20;;;5.80;;
2157;SDS011;41972;48.774;9.282;2023-05-15T12:34:09;7.97;;;7.47;;
2157;SDS011;41972;48.774;9.282;2023-05-15T12:36:35;7.00;;;6.60;;
2157;SDS011;41972;48.774;9.282;2023-05-15T12:39:05;15.03;;;14.43;;
2157;SDS011;41972;48.774;9.282;2023-05-15T12:41:32;7.90;;;7.50;;
2157;SDS011;41972;48.774;9.282;2023-05-15T12:43:57;4.83;;;4.50;;
2157;SDS011;41972;48.774;9.282;2023-05-15T12:46:30;7.13;;;6.43;;
2157;SDS011;41972;48.774;9.282;2023-05-15T12:48:59;7.57;;;7.07;;
2157;SDS011;41972;48.774;9.282;2023-05-15T12:51:25;8.03;;;7.50;;
2157;SDS011;41972;48.774;9.282;2023-05-15T12:53:53;6.73;;;6.23;;
2157;SDS011;41972;48.774;9.282;2023-05-15T12:56:21;8.33;;;7.93;;
2157;SDS011;41972;48.774;9.282;2023-05-15T12:58:47;6.67;;;6.07;;
2157;SDS011;41972;48.774;9.282;2023-05-15T13:01:13;6.20;;;5.80;;
2157;SDS011;41972;48.774;9.282;2023-05-15T13:03:40;5.90;;;5.60;;
2157;SDS011;41972;48.774;9.282;2023-05-15T13:06:06;5.43;;;5.07;;
2157;SDS011;41972;48.774;9.282;2023-05-15T13:08:37;6.60;;;6.20;;
2157;SDS011;41972;48.774;9.282;2023-05-15T13:11:04;4.90;;;4.53;;
2157;SDS011;41972;48.774;9.282;2023-05-15T13:13:43;5.03;;;4.63;;
2157;SDS011;41972;48.774;9.282;2023-05-15T13:16:16;6.63;;;6.23;;
2157;SDS011;41972;48.774;9.282;2023-05-15T13:18:45;6.50;;;5.90;;
2157;SDS011;41972;48.774;9.282;2023-05-15T13:21:11;7.93;;;7.43;;
2157;SDS011;41972;48.774;9.282;2023-05-15T13:23:38;8.00;;;7.50;;
2157;SDS011;41972;48.774;9.282;2023-05-15T13:26:03;7.40;;;6.90;;
2157;SDS011;41972;48.774;9.282;2023-05-15T13:28:29;7.07;;;6.67;;
2157;SDS011;41972;48.774;9.282;2023-05-15T13:30:54;7.90;;;7.40;;
2157;SDS011;41972;48.774;9.282;2023-05-15T13:33:20;7.03;;;6.63;;
2157;SDS011;41972;48.774;9.282;2023-05-15T13:35:45;7.60;;;7.10;;
2157;SDS011;41972;48.774;9.282;2023-05-15T13:38:11;7.30;;;6.47;;
2157;SDS011;41972;48.774;9.282;2023-05-15T13:40:38;14.23;;;13.53;;
2157;SDS011;41972;48.774;9.282;2023-05-15T13:43:04;7.53;;;6.93;;
2157;SDS011;41972;48.774;9.282;2023-05-15T13:45:32;14.80;;;13.90;;
2157;SDS011;41972;48.774;9.282;2023-05-15T13:47:58;11.90;;;11.20;;
2157;SDS011;41972;48.774;9.282;2023-05-15T13:50:23;9.80;;;9.30;;
2157;SDS011;41972;48.774;9.282;2023-05-15T13:52:49;10.97;;;10.20;;
2157;SDS011;41972;48.774;9.282;2023-05-15T13:55:15;8.10;;;7.50;;
2157;SDS011;41972;48.774;9.282;2023-05-15T13:57:41;7.17;;;6.67;;
2157;SDS011;41972;48.774;9.282;2023-05-15T14:00:08;8.43;;;7.70;;
2157;SDS011;41972;48.774;9.282;2023-05-15T14:02:36;7.53;;;7.03;;
2157;SDS011;41972;48.774;9.282;2023-05-15T14:05:03;7.87;;;7.40;;
2157;SDS011;41972;48.774;9.282;2023-05-15T14:07:29;11.67;;;11.00;;
2157;SDS011;41972;48.774;9.282;2023-05-15T14:09:55;9.57;;;9.07;;
2157;SDS011;41972;48.774;9.282;2023-05-15T14:12:21;9.33;;;8.73;;
2157;SDS011;41972;48.774;9.282;2023-05-15T14:14:47;6.57;;;6.17;;
2157;SDS011;41972;48.774;9.282;2023-05-15T14:17:13;10.70;;;9.70;;
2157;SDS011;41972;48.774;9.282;2023-05-15T14:19:39;8.57;;;7.87;;
2157;SDS011;41972;48.774;9.282;2023-05-15T14:22:05;8.27;;;7.70;;
2157;SDS011;41972;48.774;9.282;2023-05-15T14:24:30;9.53;;;8.83;;
2157;SDS011;41972;48.774;9.282;2023-05-15T14:26:56;8.93;;;8.23;;
2157;SDS011;41972;48.774;9.282;2023-05-15T14:29:21;8.07;;;7.57;;
2157;SDS011;41972;48.774;9.282;2023-05-15T14:31:48;9.83;;;9.07;;
2157;SDS011;41972;48.774;9.282;2023-05-15T14:34:13;10.13;;;9.20;;
2157;SDS011;41972;48.774;9.282;2023-05-15T14:36:39;8.17;;;7.77;;
2157;SDS011;41972;48.774;9.282;2023-05-15T14:39:05;10.80;;;10.20;;
2157;SDS011;41972;48.774;9.282;2023-05-15T14:41:30;8.20;;;7.70;;
2157;SDS011;41972;48.774;9.282;2023-05-15T14:43:56;10.33;;;9.83;;
2157;SDS011;41972;48.774;9.282;2023-05-15T14:46:21;7.80;;;7.40;;
2157;SDS011;41972;48.774;9.282;2023-05-15T14:48:47;7.30;;;6.90;;
2157;SDS011;41972;48.774;9.282;2023-05-15T14:51:12;8.77;;;8.17;;
2157;SDS011;41972;48.774;9.282;2023-05-15T14:53:38;9.63;;;8.93;;
2157;SDS011;41972;48.774;9.282;2023-05-15T14:56:04;10.00;;;9.30;;
2157;SDS011;41972;48.774;9.282;2023-05-15T14:58:30;9.50;;;8.80;;
2157;SDS011;41972;48.774;9.282;2023-05-15T15:00:56;11.57;;;10.97;;
2157;SDS011;41972;48.774;9.282;2023-05-15T15:03:21;9.43;;;8.73;;
2157;SDS011;41972;48.774;9.282;2023-05-15T15:05:48;8.43;;;7.73;;
2157;SDS011;41972;48.774;9.282;2023-05-15T15:08:15;8.30;;;7.80;;